Time;durP1;ratioP1;P1;durP2;ratioP2;P2;SDS_P1;SDS_P2;PMS_P1;PMS_P2;Temp;Humidity;BMP_temperature;BMP_pressure;BME280_temperature;BME280_humidity;BME280_pressure;Samples;Min_cycle;Max_cycle;Signal;HPM_P1;HPM_P2
2023/10/04 00:00:15;;;;;;;6.07;2.00;;;14.60;94.60;;;;;;5055115;28;20043;-82
2023/10/04 00:02:54;;;;;;;7.88;1.88;;;14.60;94.80;;;;;;5071419;28;20053;-82
2023/10/04 00:05:22;;;;;;;3.97;1.73;;;14.60;94.70;;;;;;5072454;28;20025;-82
2023/10/04 00:07:50;;;;;;;5.88;1.85;;;14.70;94.70;;;;;;5054582;28;20029;-82
2023/10/04 00:10:17;;;;;;;5.78;1.75;;;14.70;94.60;;;;;;5071089;28;20111;-82
2023/10/04 00:12:44;;;;;;;4.03;1.50;;;14.70;94.60;;;;;;5057019;28;20024;-82
2023/10/04 00:15:12;;;;;;;5.75;1.85;;;14.70;94.50;;;;;;5041546;28;20020;-82
2023/10/04 00:17:42;;;;;;;6.63;2.10;;;14.70;94.60;;;;;;5058068;28;20085;-82
2023/10/04 00:20:13;;;;;;;5.55;1.80;;;14.70;94.60;;;;;;5074279;28;20031;-82
2023/10/04 00:22:40;;;;;;;4.43;1.80;;;14.70;94.60;;;;;;5041401;28;20029;-82
2023/10/04 00:25:16;;;;;;;7.03;1.65;;;14.70;94.50;;;;;;5057816;28;20079;-82
2023/10/04 00:27:44;;;;;;;5.40;1.80;;;14.70;94.60;;;;;;5073999;28;20381;-82
2023/10/04 00:30:11;;;;;;;4.80;1.60;;;14.70;94.60;;;;;;5074426;28;20031;-81
2023/10/04 00:32:37;;;;;;;5.93;1.85;;;14.60;94.60;;;;;;5075705;28;20044;-82
2023/10/04 00:35:15;;;;;;;5.75;1.92;;;14.60;94.60;;;;;;5041145;28;20090;-82
2023/10/04 00:37:42;;;;;;;7.88;1.73;;;14.60;94.60;;;;;;5074111;28;20040;-81
2023/10/04 00:40:18;;;;;;;6.82;2.20;;;14.70;94.50;;;;;;5057281;28;20021;-82
2023/10/04 00:42:47;;;;;;;6.10;1.70;;;14.70;94.50;;;;;;5043479;28;20498;-82
2023/10/04 00:45:13;;;;;;;6.03;1.83;;;14.70;94.60;;;;;;5041484;28;20073;-82
2023/10/04 00:47:50;;;;;;;5.13;1.35;;;14.70;94.70;;;;;;5057257;28;20099;-82
2023/10/04 00:50:26;;;;;;;6.68;1.80;;;14.70;94.70;;;;;;5057681;28;20056;-82
2023/10/04 00:53:00;;;;;;;6.68;1.65;;;14.70;94.80;;;;;;5057959;28;20039;-82
2023/10/04 00:55:27;;;;;;;5.53;1.60;;;14.70;94.70;;;;;;5073907;28;20035;-82
2023/10/04 00:57:57;;;;;;;6.18;1.88;;;14.70;94.70;;;;;;5057311;28;20078;-82
2023/10/04 01:00:26;;;;;;;12.38;2.30;;;14.70;94.70;;;;;;5073670;28;20028;-81
2023/10/04 01:02:52;;;;;;;4.90;1.58;;;14.60;94.70;;;;;;5073793;28;20025;-82
2023/10/04 01:05:22;;;;;;;7.57;2.70;;;14.60;94.60;;;;;;5057341;28;20058;-82
2023/10/04 01:07:49;;;;;;;6.22;2.03;;;14.60;94.70;;;;;;5057061;28;20521;-82
2023/10/04 01:10:20;;;;;;;7.13;2.15;;;14.60;94.80;;;;;;5073524;28;20094;-82
2023/10/04 01:12:46;;;;;;;6.53;1.95;;;14.60;94.80;;;;;;5041692;28;20024;-82
2023/10/04 01:15:49;;;;;;;6.88;1.80;;;14.50;94.70;;;;;;5056962;28;20020;-82
2023/10/04 01:18:09;;;;;;;7.00;2.05;;;14.60;94.70;;;;;;5070579;28;20394;-82
2023/10/04 01:20:38;;;;;;;4.85;1.52;;;14.50;94.80;;;;;;5073386;28;20097;-82
2023/10/04 01:23:10;;;;;;;2.78;1.30;;;14.50;94.80;;;;;;5073182;28;20371;-82
2023/10/04 01:25:40;;;;;;;;;;;14.50;94.90;;;;;;5073768;28;20502;-82
2023/10/04 01:28:17;;;;;;;6.90;1.70;;;14.50;95.00;;;;;;5072990;28;19908;-82
2023/10/04 01:30:51;;;;;;;6.38;1.60;;;14.40;95.10;;;;;;5073189;28;20025;-82
2023/10/04 01:33:20;;;;;;;7.15;2.08;;;14.40;95.20;;;;;;5073064;28;20036;-82
2023/10/04 01:35:49;;;;;;;5.38;1.75;;;14.30;95.20;;;;;;5056656;28;20024;-82
2023/10/04 01:38:16;;;;;;;5.40;1.95;;;14.40;95.10;;;;;;5056418;28;20028;-82
2023/10/04 01:40:46;;;;;;;4.95;2.30;;;14.50;95.00;;;;;;5056287;28;20035;-82
2023/10/04 01:43:16;;;;;;;5.68;1.60;;;14.50;95.00;;;;;;5056589;28;20028;-82
2023/10/04 01:45:44;;;;;;;4.95;1.80;;;14.40;95.00;;;;;;5074042;28;20502;-82
2023/10/04 01:48:10;;;;;;;6.13;1.90;;;14.50;95.00;;;;;;5072769;28;20035;-82
2023/10/04 01:50:36;;;;;;;7.10;1.90;;;14.50;95.00;;;;;;5072549;28;20052;-82
2023/10/04 01:53:03;;;;;;;4.55;1.88;;;14.50;95.00;;;;;;5055955;28;20021;-82
2023/10/04 01:55:29;;;;;;;6.53;1.95;;;14.50;95.00;;;;;;5039577;28;20033;-82
2023/10/04 01:57:54;;;;;;;5.18;1.83;;;14.40;95.10;;;;;;5055968;28;20386;-82
2023/10/04 02:00:23;;;;;;;6.05;2.10;;;14.40;95.10;;;;;;5072706;28;20028;-82
2023/10/04 02:02:49;;;;;;;5.13;1.80;;;14.40;95.10;;;;;;5056285;28;20424;-82
2023/10/04 02:05:20;;;;;;;5.55;1.95;;;14.50;95.10;;;;;;5072408;28;20029;-82
2023/10/04 02:07:46;;;;;;;7.35;2.13;;;14.40;95.10;;;;;;5056345;28;20106;-82
2023/10/04 02:10:17;;;;;;;4.15;1.98;;;14.40;95.20;;;;;;5072426;28;20028;-82
2023/10/04 02:12:43;;;;;;;6.88;2.25;;;14.40;95.20;;;;;;5056280;28;20039;-82
2023/10/04 02:15:14;;;;;;;9.32;2.60;;;14.40;95.20;;;;;;5072223;28;20107;-82
2023/10/04 02:17:45;;;;;;;7.13;2.30;;;14.50;95.20;;;;;;5056306;28;20035;-82
2023/10/04 02:20:21;;;;;;;7.00;2.08;;;14.50;95.10;;;;;;5072277;28;20028;-82
2023/10/04 02:22:49;;;;;;;7.72;2.03;;;14.50;95.20;;;;;;5072056;28;20020;-82
2023/10/04 02:25:17;;;;;;;5.93;2.00;;;14.40;95.20;;;;;;5072125;28;20374;-82
2023/10/04 02:27:44;;;;;;;7.07;2.28;;;14.40;95.30;;;;;;5071982;28;20020;-82
2023/10/04 02:30:15;;;;;;;6.47;2.22;;;14.40;95.40;;;;;;5055569;28;20522;-82
2023/10/04 02:32:43;;;;;;;5.35;2.10;;;14.40;95.30;;;;;;5072070;28;20020;-81
2023/10/04 02:36:13;;;;;;;8.95;2.42;;;14.40;95.40;;;;;;5054842;28;20060;-82
2023/10/04 02:38:16;;;;;;;7.45;2.45;;;14.40;95.50;;;;;;5063926;28;20120;-82
2023/10/04 02:40:50;;;;;;;6.38;2.05;;;14.30;95.50;;;;;;5041364;28;20044;-82
2023/10/04 02:43:19;;;;;;;8.20;2.20;;;14.30;95.60;;;;;;5071796;28;20032;-82
2023/10/04 02:45:47;;;;;;;7.72;2.20;;;14.30;95.60;;;;;;5039441;28;20517;-82
2023/10/04 02:48:13;;;;;;;6.63;2.25;;;14.30;95.60;;;;;;5071875;28;20067;-82
2023/10/04 02:50:43;;;;;;;6.10;1.98;;;14.40;95.50;;;;;;5055148;28;20473;-82
2023/10/04 02:53:13;;;;;;;3.22;1.80;;;14.40;95.50;;;;;;5071861;28;20478;-82
2023/10/04 02:55:43;;;;;;;5.88;2.22;;;14.40;95.50;;;;;;5039725;28;20108;-81
2023/10/04 02:58:10;;;;;;;5.78;2.10;;;14.40;95.60;;;;;;5071961;28;20043;-82
2023/10/04 03:00:46;;;;;;;5.28;1.88;;;14.30;95.60;;;;;;5071902;28;20021;-81
2023/10/04 03:03:19;;;;;;;8.38;2.15;;;14.40;95.60;;;;;;5055732;28;20039;-82
2023/10/04 03:05:45;;;;;;;5.15;2.20;;;14.30;95.60;;;;;;5055120;28;20029;-82
2023/10/04 03:08:12;;;;;;;6.63;2.22;;;14.40;95.60;;;;;;5054909;28;20049;-82
2023/10/04 03:10:38;;;;;;;8.85;2.15;;;14.40;95.60;;;;;;5071787;28;20036;-82
2023/10/04 03:13:12;;;;;;;9.35;2.35;;;14.40;95.60;;;;;;5038318;28;20409;-82
2023/10/04 03:15:39;;;;;;;5.75;2.20;;;14.40;95.50;;;;;;5071615;28;20074;-81
2023/10/04 03:18:13;;;;;;;7.07;2.03;;;14.40;95.50;;;;;;5072793;28;20051;-82
2023/10/04 03:20:49;;;;;;;4.88;1.90;;;14.40;95.50;;;;;;5072921;28;20474;-82
2023/10/04 03:23:18;;;;;;;7.95;2.30;;;14.40;95.50;;;;;;5071257;28;20645;-82
2023/10/04 03:25:47;;;;;;;8.35;2.00;;;14.40;95.50;;;;;;5054988;28;20465;-82
2023/10/04 03:28:14;;;;;;;7.15;1.75;;;14.40;95.40;;;;;;5055165;28;20028;-82
2023/10/04 03:30:44;;;;;;;8.25;2.33;;;14.40;95.40;;;;;;5055137;28;20040;-82
2023/10/04 03:33:10;;;;;;;7.30;2.28;;;14.40;95.30;;;;;;5072485;28;20048;-82
2023/10/04 03:35:39;;;;;;;5.30;2.20;;;14.40;95.20;;;;;;5054709;28;20072;-82
2023/10/04 03:38:06;;;;;;;5.45;2.30;;;14.40;95.30;;;;;;5038348;28;20494;-82
2023/10/04 03:40:36;;;;;;;7.78;2.60;;;14.40;95.30;;;;;;5072601;28;20036;-82
2023/10/04 03:43:05;;;;;;;7.57;2.30;;;14.30;95.30;;;;;;5071280;28;20454;-82
2023/10/04 03:45:32;;;;;;;6.60;1.98;;;14.30;95.30;;;;;;5071383;28;20408;-82
2023/10/04 03:47:59;;;;;;;12.00;2.90;;;14.30;95.30;;;;;;5057845;28;20021;-82
2023/10/04 03:50:25;;;;;;;8.65;2.55;;;14.30;95.20;;;;;;5058260;28;20040;-82
2023/10/04 03:52:52;;;;;;;6.55;2.33;;;14.20;95.20;;;;;;5075098;28;20021;-82
2023/10/04 03:55:18;;;;;;;7.18;2.10;;;14.20;95.30;;;;;;5074933;28;20059;-82
2023/10/04 03:57:44;;;;;;;7.45;1.98;;;14.20;95.30;;;;;;5074774;28;20024;-82
2023/10/04 04:00:17;;;;;;;6.45;2.20;;;14.10;95.40;;;;;;5058342;28;20044;-82
2023/10/04 04:02:46;;;;;;;10.63;2.25;;;14.10;95.50;;;;;;5058802;28;20025;-82
2023/10/04 04:05:14;;;;;;;4.70;2.03;;;14.10;95.50;;;;;;5074843;28;20017;-82
2023/10/04 04:07:43;;;;;;;8.70;2.50;;;14.10;95.50;;;;;;5058070;28;20036;-82
2023/10/04 04:10:14;;;;;;;6.15;2.22;;;14.10;95.50;;;;;;5074517;28;20409;-82
2023/10/04 04:12:41;;;;;;;8.15;1.95;;;14.10;95.50;;;;;;5074850;28;20367;-82
2023/10/04 04:15:10;;;;;;;8.65;2.20;;;14.00;95.50;;;;;;5057699;28;20070;-82
2023/10/04 04:17:37;;;;;;;7.10;2.22;;;14.10;95.50;;;;;;5042188;28;20078;-81
2023/10/04 04:20:26;;;;;;;7.03;2.47;;;14.10;95.40;;;;;;5057753;28;20513;-82
2023/10/04 04:22:53;;;;;;;7.03;2.00;;;14.00;95.40;;;;;;5075286;28;20056;-82
2023/10/04 04:25:23;;;;;;;5.93;2.33;;;13.90;95.50;;;;;;5074280;28;20020;-82
2023/10/04 04:27:51;;;;;;;5.72;2.22;;;13.90;95.50;;;;;;5073950;28;20082;-81
2023/10/04 04:30:22;;;;;;;9.40;2.10;;;13.90;95.50;;;;;;5074211;28;20035;-82
2023/10/04 04:32:52;;;;;;;4.30;1.92;;;13.90;95.50;;;;;;5074140;28;20124;-82
2023/10/04 04:38:16;;;;;;;8.18;2.50;;;13.90;95.50;;;;;;5074336;28;20040;-82
2023/10/04 04:40:48;;;;;;;12.25;2.80;;;13.90;95.50;;;;;;5058735;28;20062;-82
2023/10/04 04:45:50;;;;;;;5.25;2.58;;;13.80;95.60;;;;;;5074215;28;20044;-82
2023/10/04 04:48:18;;;;;;;9.80;2.50;;;13.80;95.60;;;;;;5073875;28;20443;-82
2023/10/04 04:50:44;;;;;;;11.73;2.20;;;13.80;95.50;;;;;;5057137;28;20048;-82
2023/10/04 04:53:14;;;;;;;6.10;2.20;;;13.70;95.60;;;;;;5056275;28;20504;-82
2023/10/04 04:55:40;;;;;;;4.35;2.20;;;13.70;95.60;;;;;;5038697;28;20098;-81
2023/10/04 04:58:06;;;;;;;5.72;1.90;;;13.70;95.70;;;;;;5053830;28;20682;-82
2023/10/04 05:00:33;;;;;;;7.20;2.35;;;13.60;95.70;;;;;;5054379;28;20029;-82
2023/10/04 05:03:00;;;;;;;4.57;2.22;;;13.60;95.60;;;;;;5039696;28;20490;-82
2023/10/04 05:05:30;;;;;;;8.63;2.40;;;13.60;95.70;;;;;;5053431;28;20047;-82
2023/10/04 05:07:57;;;;;;;8.57;2.40;;;13.60;95.70;;;;;;5053392;28;20156;-82
2023/10/04 05:10:25;;;;;;;8.23;2.30;;;13.70;95.60;;;;;;5020120;28;20489;-82
2023/10/04 05:12:53;;;;;;;9.10;2.88;;;13.60;95.60;;;;;;5037092;28;20430;-82
2023/10/04 05:15:23;;;;;;;7.80;2.70;;;13.60;95.60;;;;;;5020338;28;20024;-82
2023/10/04 05:17:52;;;;;;;8.38;2.65;;;13.60;95.60;;;;;;5037166;28;20029;-82
2023/10/04 05:20:20;;;;;;;9.70;2.88;;;13.50;95.70;;;;;;5037036;28;20025;-82
2023/10/04 05:22:47;;;;;;;9.02;2.38;;;13.50;95.70;;;;;;5053043;28;20025;-82
2023/10/04 05:25:13;;;;;;;8.32;2.30;;;13.60;95.80;;;;;;5052919;28;20036;-82
2023/10/04 05:27:38;;;;;;;6.60;2.63;;;13.50;95.80;;;;;;5052887;28;20025;-82
2023/10/04 05:30:15;;;;;;;11.93;2.55;;;13.50;95.80;;;;;;5020233;28;20048;-80
2023/10/04 05:32:45;;;;;;;6.78;2.20;;;13.50;95.80;;;;;;5021751;28;20091;-80
2023/10/04 05:35:14;;;;;;;9.30;2.42;;;13.50;95.70;;;;;;5053962;28;20021;-80
2023/10/04 05:37:44;;;;;;;10.15;2.58;;;13.50;95.80;;;;;;5052595;28;20112;-80
2023/10/04 05:40:17;;;;;;;8.15;2.38;;;13.60;95.70;;;;;;5036503;28;20372;-82
2023/10/04 05:42:44;;;;;;;5.03;2.58;;;13.60;95.70;;;;;;5036935;28;20044;-82
2023/10/04 05:45:13;;;;;;;10.50;2.95;;;13.50;95.80;;;;;;5035972;28;20025;-82
2023/10/04 05:47:39;;;;;;;6.93;2.30;;;13.50;95.80;;;;;;5052861;28;20495;-82
2023/10/04 05:50:10;;;;;;;8.50;2.40;;;13.40;95.90;;;;;;5055732;28;20059;-82
2023/10/04 05:52:37;;;;;;;7.75;2.60;;;13.40;96.00;;;;;;5039881;28;20032;-82
2023/10/04 05:55:03;;;;;;;5.00;2.20;;;13.40;96.10;;;;;;5023365;28;20020;-82
2023/10/04 05:57:29;;;;;;;8.10;2.67;;;13.40;96.00;;;;;;5039412;28;20082;-82
2023/10/04 05:59:55;;;;;;;7.47;2.45;;;13.40;96.00;;;;;;5055963;28;20120;-82
2023/10/04 06:02:22;;;;;;;7.95;2.78;;;13.40;96.00;;;;;;5039306;28;20111;-82
2023/10/04 06:04:48;;;;;;;9.15;2.60;;;13.50;95.90;;;;;;5039707;28;20031;-82
2023/10/04 06:07:14;;;;;;;10.90;2.38;;;13.50;96.00;;;;;;5039308;28;20030;-82
2023/10/04 06:09:44;;;;;;;7.20;2.20;;;13.40;96.00;;;;;;5037433;28;20032;-82
2023/10/04 06:12:10;;;;;;;8.68;2.50;;;13.30;96.00;;;;;;5057029;28;20043;-81
2023/10/04 06:14:37;;;;;;;6.18;3.10;;;13.40;96.10;;;;;;5039369;28;20016;-82
2023/10/04 06:17:07;;;;;;;6.95;2.45;;;13.30;96.20;;;;;;5056358;28;20027;-82
2023/10/04 06:19:36;;;;;;;8.65;2.67;;;13.40;96.20;;;;;;5040419;28;20028;-82
2023/10/04 06:22:02;;;;;;;7.13;2.22;;;13.40;96.20;;;;;;5039134;28;20081;-82
2023/10/04 06:24:27;;;;;;;5.85;2.22;;;13.40;96.20;;;;;;5055721;28;20032;-82
2023/10/04 06:26:53;;;;;;;8.02;2.65;;;13.40;96.10;;;;;;5022312;28;20028;-82
2023/10/04 06:29:19;;;;;;;9.70;2.90;;;13.40;96.20;;;;;;5055699;28;20382;-82
2023/10/04 06:31:45;;;;;;;8.05;2.47;;;13.40;96.20;;;;;;5027201;28;20055;-81
2023/10/04 06:34:11;;;;;;;6.45;2.47;;;13.40;96.30;;;;;;5022645;28;20052;-82
2023/10/04 06:36:37;;;;;;;5.45;2.40;;;13.50;96.30;;;;;;5055387;28;20024;-82
2023/10/04 06:39:06;;;;;;;6.38;2.80;;;13.40;96.30;;;;;;5022709;28;20032;-81
2023/10/04 06:41:32;;;;;;;6.57;2.55;;;13.40;96.30;;;;;;5023352;28;20032;-82
2023/10/04 06:43:58;;;;;;;8.60;2.42;;;13.50;96.30;;;;;;5022491;28;20025;-82
2023/10/04 06:46:24;;;;;;;11.40;2.85;;;13.50;96.30;;;;;;5022473;28;20032;-81
2023/10/04 06:48:51;;;;;;;6.43;2.22;;;13.50;96.30;;;;;;5055294;28;20382;-81
2023/10/04 06:51:16;;;;;;;8.93;2.83;;;13.50;96.40;;;;;;5022723;28;20482;-81
2023/10/04 06:53:43;;;;;;;10.02;2.70;;;13.50;96.40;;;;;;5038585;28;20057;-81
2023/10/04 06:56:12;;;;;;;8.90;2.90;;;13.50;96.50;;;;;;5038934;28;20039;-81
2023/10/04 06:58:37;;;;;;;8.32;2.45;;;13.60;96.50;;;;;;5038818;28;20143;-82
2023/10/04 07:01:03;;;;;;;10.23;2.60;;;13.60;96.60;;;;;;5022535;28;20119;-82
2023/10/04 07:03:29;;;;;;;9.82;2.78;;;13.60;96.60;;;;;;5073121;28;20031;-82
2023/10/04 07:05:55;;;;;;;7.72;2.72;;;13.70;96.50;;;;;;5022058;28;20575;-82
2023/10/04 07:08:36;;;;;;;9.68;2.92;;;13.70;96.60;;;;;;5046395;28;20082;-82
2023/10/04 07:11:04;;;;;;;8.25;2.03;;;13.80;96.50;;;;;;5050060;28;20033;-82
2023/10/04 07:13:46;;;;;;;;;;;;;;;;;;;;;
2023/10/04 07:16:12;;;;;;;7.88;2.50;;;13.80;96.50;;;;;;5064185;28;20092;-81
2023/10/04 07:18:38;;;;;;;10.93;2.53;;;13.90;96.60;;;;;;5055558;28;20067;-81
2023/10/04 07:21:03;;;;;;;11.43;2.45;;;13.90;96.60;;;;;;5058813;28;20398;-81
2023/10/04 07:23:29;;;;;;;7.40;2.40;;;13.90;96.50;;;;;;5059346;28;20033;-81
2023/10/04 07:25:55;;;;;;;12.70;3.05;;;14.00;96.60;;;;;;5059144;28;20098;-81
2023/10/04 07:28:24;;;;;;;10.05;2.70;;;14.10;96.60;;;;;;5042179;28;20039;-81
2023/10/04 07:30:50;;;;;;;4.75;2.45;;;14.10;96.60;;;;;;5027315;28;20031;-81
2023/10/04 07:33:16;;;;;;;9.77;2.70;;;14.10;96.40;;;;;;5059264;28;20047;-80
2023/10/04 07:35:47;;;;;;;7.72;2.30;;;14.10;96.30;;;;;;5060758;28;20107;-81
2023/10/04 07:38:13;;;;;;;9.63;3.00;;;14.10;96.50;;;;;;5026012;28;20032;-81
2023/10/04 07:40:47;;;;;;;8.63;2.70;;;14.20;96.80;;;;;;5042600;28;20044;-81
2023/10/04 07:43:37;;;;;;;9.05;3.00;;;14.20;96.30;;;;;;5049226;28;20070;-84
2023/10/04 07:49:28;;;;;;;7.77;2.57;;;14.40;96.60;;;;;;5087331;28;20132;-83
2023/10/04 07:51:55;;;;;;;7.55;2.67;;;14.40;96.60;;;;;;5059093;28;20094;-83
2023/10/04 07:54:21;;;;;;;7.35;2.70;;;14.50;96.30;;;;;;5058667;28;20035;-83
2023/10/04 07:56:48;;;;;;;9.20;2.70;;;14.50;96.30;;;;;;5042092;28;20029;-83
2023/10/04 07:59:17;;;;;;;10.13;2.88;;;14.60;96.40;;;;;;5026461;28;20031;-83
2023/10/04 08:01:43;;;;;;;11.77;3.63;;;14.60;96.40;;;;;;5076883;28;20025;-83
2023/10/04 08:04:09;;;;;;;10.73;2.97;;;14.70;96.30;;;;;;5042272;28;20029;-83
2023/10/04 08:06:35;;;;;;;10.70;2.47;;;14.70;96.30;;;;;;5025630;28;20393;-83
2023/10/04 08:09:04;;;;;;;8.18;2.35;;;14.80;96.40;;;;;;5025169;28;20128;-83
2023/10/04 08:11:33;;;;;;;8.00;2.80;;;14.80;96.00;;;;;;5058700;28;20545;-83
2023/10/04 08:13:59;;;;;;;8.80;2.55;;;14.90;96.00;;;;;;5026076;28;20017;-83
2023/10/04 08:16:25;;;;;;;12.43;3.22;;;15.00;96.20;;;;;;5042012;28;20466;-83
2023/10/04 08:18:50;;;;;;;7.00;2.33;;;15.00;96.20;;;;;;5058253;28;20531;-83
2023/10/04 08:21:16;;;;;;;7.78;2.78;;;15.10;96.00;;;;;;5041719;28;20060;-83
2023/10/04 08:23:42;;;;;;;9.93;2.78;;;15.10;95.60;;;;;;5042025;28;20037;-83
2023/10/04 08:26:15;;;;;;;8.20;2.83;;;15.10;95.50;;;;;;5041308;28;20123;-83
2023/10/04 08:29:01;;;;;;;;;;;;;;;;;;;;;
2023/10/04 08:31:39;;;;;;;6.65;2.55;;;15.30;95.70;;;;;;5098067;22;20064;-76
2023/10/04 08:34:24;;;;;;;;;;;;;;;;;;;;;
2023/10/04 08:36:51;;;;;;;7.45;2.55;;;15.30;95.10;;;;;;5074860;28;20044;-77
2023/10/04 08:39:17;;;;;;;8.02;3.08;;;15.20;95.00;;;;;;5075618;28;20025;-80
2023/10/04 08:41:47;;;;;;;11.55;3.35;;;15.30;95.20;;;;;;5074622;28;20025;-77
2023/10/04 08:44:13;;;;;;;9.75;2.83;;;15.30;95.30;;;;;;5057701;28;20025;-77
2023/10/04 08:46:40;;;;;;;8.25;2.40;;;15.30;95.00;;;;;;5075423;28;20048;-78
2023/10/04 08:49:12;;;;;;;12.75;3.00;;;15.30;95.20;;;;;;5057633;28;20025;-78
2023/10/04 08:51:40;;;;;;;;;;;15.40;94.90;;;;;;5075786;28;20063;-78
2023/10/04 08:54:12;;;;;;;8.30;2.72;;;15.40;95.40;;;;;;5075227;28;19904;-78
2023/10/04 08:57:20;;;;;;;8.30;2.72;;;15.50;95.20;;;;;;5075298;28;20077;-78
2023/10/04 08:59:54;;;;;;;8.50;2.78;;;15.60;95.60;;;;;;5056864;28;20064;-77
2023/10/04 09:02:27;;;;;;;7.13;2.75;;;15.60;95.00;;;;;;5053893;28;20076;-77
2023/10/04 09:11:45;;;;;;;7.15;2.97;;;15.70;94.90;;;;;;5053360;28;20130;-77
2023/10/04 09:14:13;;;;;;;8.63;2.63;;;15.80;95.00;;;;;;5036569;28;20033;-78
2023/10/04 09:16:39;;;;;;;9.05;2.72;;;15.80;94.60;;;;;;5053071;28;20486;-78
2023/10/04 09:19:17;;;;;;;9.77;2.88;;;15.90;94.20;;;;;;5036504;28;20053;-79
2023/10/04 09:21:43;;;;;;;9.73;2.78;;;15.80;94.20;;;;;;5053023;28;20101;-77
2023/10/04 09:24:11;;;;;;;7.40;2.65;;;15.80;94.50;;;;;;5053045;28;20180;-77
2023/10/04 09:26:49;;;;;;;8.13;2.80;;;15.90;94.90;;;;;;5036272;28;20047;-77
2023/10/04 09:29:15;;;;;;;8.15;2.58;;;15.80;94.60;;;;;;5052878;28;20025;-77
2023/10/04 09:31:53;;;;;;;6.32;2.75;;;16.00;94.90;;;;;;5036202;28;20031;-77
2023/10/04 09:34:19;;;;;;;8.98;2.90;;;15.90;94.10;;;;;;5072699;28;20047;-77
2023/10/04 09:36:45;;;;;;;6.15;2.42;;;15.80;94.20;;;;;;5074526;28;20081;-78
2023/10/04 09:39:16;;;;;;;12.85;2.70;;;15.90;94.30;;;;;;5074508;28;20025;-78
2023/10/04 09:41:43;;;;;;;11.45;2.85;;;16.00;94.40;;;;;;5073713;28;20033;-77
2023/10/04 09:44:29;;;;;;;8.77;2.75;;;16.10;94.70;;;;;;5074337;28;20059;-77
2023/10/04 09:46:59;;;;;;;14.23;3.55;;;16.20;94.30;;;;;;5074438;28;20104;-77
2023/10/04 09:49:31;;;;;;;7.80;2.78;;;16.20;94.20;;;;;;5074202;28;20041;-77
2023/10/04 09:52:00;;;;;;;14.00;2.83;;;16.20;94.40;;;;;;5056565;28;20020;-77
2023/10/04 09:54:27;;;;;;;7.85;2.72;;;16.10;94.40;;;;;;5056595;28;20025;-77
2023/10/04 09:56:54;;;;;;;9.63;2.53;;;16.20;94.40;;;;;;5056536;28;20044;-78
2023/10/04 09:59:23;;;;;;;8.98;3.03;;;16.30;94.60;;;;;;5056480;28;20048;-77
2023/10/04 10:01:57;;;;;;;10.63;2.78;;;16.30;94.60;;;;;;5074059;28;20084;-77
2023/10/04 10:04:27;;;;;;;10.77;2.83;;;16.40;94.30;;;;;;5073927;28;20048;-77
2023/10/04 10:07:11;;;;;;;9.23;3.00;;;16.40;94.10;;;;;;5073975;28;20024;-77
2023/10/04 10:10:01;;;;;;;6.75;2.75;;;16.50;94.20;;;;;;5073875;28;20029;-81
2023/10/04 10:12:31;;;;;;;10.45;3.00;;;16.40;93.60;;;;;;5044962;28;20067;-77
2023/10/04 10:15:01;;;;;;;8.25;2.60;;;16.50;93.70;;;;;;5073795;28;20028;-78
2023/10/04 10:17:30;;;;;;;6.65;2.63;;;16.50;93.50;;;;;;5073917;28;20025;-77
2023/10/04 10:19:56;;;;;;;9.60;2.92;;;16.60;93.30;;;;;;5056036;28;20029;-77
2023/10/04 10:22:23;;;;;;;8.55;2.75;;;16.70;93.60;;;;;;5073634;28;20029;-77
2023/10/04 10:24:59;;;;;;;8.20;2.63;;;16.80;93.70;;;;;;5072840;28;20033;-77
2023/10/04 10:27:28;;;;;;;8.20;2.95;;;16.80;92.30;;;;;;5055931;28;20498;-77
2023/10/04 10:30:01;;;;;;;10.82;2.90;;;16.80;92.70;;;;;;5055825;28;20041;-77
2023/10/04 10:32:28;;;;;;;5.63;2.40;;;16.90;92.50;;;;;;5073355;28;20063;-77
2023/10/04 10:35:08;;;;;;;7.50;2.55;;;16.90;92.90;;;;;;5072574;28;20035;-77
2023/10/04 10:37:40;;;;;;;7.70;2.30;;;17.00;92.10;;;;;;5055792;28;20051;-77
2023/10/04 10:40:26;;;;;;;8.75;2.80;;;17.00;91.90;;;;;;5073581;28;20028;-78
2023/10/04 10:43:11;;;;;;;8.05;2.40;;;17.00;92.20;;;;;;5073252;28;20021;-78
2023/10/04 10:45:37;;;;;;;6.57;2.90;;;17.20;91.90;;;;;;5073311;28;20365;-77
2023/10/04 10:48:06;;;;;;;8.55;2.33;;;17.20;91.80;;;;;;5055619;28;20028;-77
2023/10/04 10:50:33;;;;;;;5.65;2.50;;;17.20;91.20;;;;;;5073349;28;20025;-77
2023/10/04 10:53:06;;;;;;;9.02;3.05;;;17.30;90.50;;;;;;5073240;28;20028;-77
2023/10/04 10:55:36;;;;;;;10.07;2.92;;;17.30;90.30;;;;;;5072723;28;20048;-77
2023/10/04 10:58:02;;;;;;;7.88;3.00;;;17.30;90.30;;;;;;5055593;28;20017;-77
2023/10/04 11:00:32;;;;;;;7.93;2.50;;;17.30;90.50;;;;;;5073139;28;20051;-78
2023/10/04 11:02:59;;;;;;;8.73;2.85;;;17.30;90.00;;;;;;5055516;28;20029;-78
2023/10/04 11:05:25;;;;;;;9.40;3.20;;;17.40;90.60;;;;;;5055420;28;20029;-78
2023/10/04 11:07:55;;;;;;;8.98;2.95;;;17.40;90.40;;;;;;5055272;28;20059;-78
2023/10/04 11:10:25;;;;;;;8.88;2.80;;;17.50;90.80;;;;;;5073179;28;20018;-78
2023/10/04 11:12:54;;;;;;;10.93;2.95;;;17.60;91.00;;;;;;5073248;28;20022;-77
2023/10/04 11:15:23;;;;;;;9.30;2.80;;;17.70;91.10;;;;;;5055560;28;20085;-77
2023/10/04 11:17:50;;;;;;;8.20;2.80;;;17.60;90.10;;;;;;5072120;28;20024;-78
2023/10/04 11:20:21;;;;;;;9.73;2.88;;;17.60;90.20;;;;;;5055401;28;20027;-78
2023/10/04 11:22:49;;;;;;;7.28;2.53;;;17.60;89.70;;;;;;5072942;28;20021;-77
2023/10/04 11:25:16;;;;;;;7.93;2.60;;;17.60;89.80;;;;;;5071942;28;20017;-78
2023/10/04 11:27:43;;;;;;;8.68;3.55;;;17.60;89.30;;;;;;5072932;28;20071;-77
2023/10/04 11:30:11;;;;;;;11.07;2.63;;;17.60;87.70;;;;;;5072798;28;20447;-77
2023/10/04 11:32:41;;;;;;;8.48;2.55;;;17.50;87.10;;;;;;5068246;28;20065;-77
2023/10/04 11:35:08;;;;;;;7.07;2.50;;;17.50;87.30;;;;;;5051772;28;20060;-78
2023/10/04 11:37:44;;;;;;;5.38;2.35;;;17.50;87.30;;;;;;5035518;28;20021;-78
2023/10/04 11:40:12;;;;;;;11.23;3.30;;;17.60;88.30;;;;;;5035361;28;20039;-78
2023/10/04 11:42:41;;;;;;;6.43;2.47;;;17.70;87.10;;;;;;5051751;28;20476;-78
2023/10/04 11:45:23;;;;;;;9.38;2.42;;;17.60;86.10;;;;;;5051818;28;20028;-78
2023/10/04 11:48:01;;;;;;;10.20;2.70;;;17.60;85.60;;;;;;5051704;28;20087;-78
2023/10/04 11:50:42;;;;;;;7.60;2.72;;;17.60;85.90;;;;;;5052732;28;20025;-78
2023/10/04 11:53:07;;;;;;;5.63;2.28;;;17.70;86.30;;;;;;5051624;28;20022;-78
2023/10/04 11:55:37;;;;;;;5.57;2.15;;;17.70;86.10;;;;;;5035280;28;20025;-78
2023/10/04 11:58:07;;;;;;;11.95;2.55;;;17.70;86.10;;;;;;5035686;28;20025;-78
2023/10/04 12:00:33;;;;;;;14.13;3.00;;;17.80;87.30;;;;;;5052835;28;20022;-78
2023/10/04 12:03:01;;;;;;;9.65;3.00;;;17.80;86.60;;;;;;5052617;28;20539;-78
2023/10/04 12:05:27;;;;;;;8.93;2.90;;;17.90;85.90;;;;;;5051636;28;20036;-78
2023/10/04 12:07:58;;;;;;;7.80;2.67;;;17.90;84.90;;;;;;5052719;28;20104;-78
2023/10/04 12:10:27;;;;;;;8.77;2.67;;;18.00;84.90;;;;;;5056254;28;20017;-77
2023/10/04 12:12:55;;;;;;;7.93;2.53;;;17.90;85.40;;;;;;5039158;28;20036;-77
2023/10/04 12:15:21;;;;;;;9.82;2.95;;;17.90;84.40;;;;;;5055084;28;20017;-77
2023/10/04 12:17:48;;;;;;;7.68;2.50;;;17.90;83.20;;;;;;5038709;28;20022;-77
2023/10/04 12:20:14;;;;;;;7.88;2.60;;;17.80;82.80;;;;;;5056015;28;20085;-77
2023/10/04 12:22:40;;;;;;;8.55;2.97;;;17.80;83.40;;;;;;5055928;28;20037;-77
2023/10/04 12:25:06;;;;;;;8.30;2.72;;;17.80;83.30;;;;;;5054927;28;20041;-77
2023/10/04 12:27:31;;;;;;;8.15;2.78;;;17.70;84.10;;;;;;5055045;28;20032;-77
2023/10/04 12:29:57;;;;;;;7.57;2.30;;;17.70;84.50;;;;;;5054818;28;20022;-77
2023/10/04 12:32:26;;;;;;;9.80;3.10;;;17.80;84.10;;;;;;5063024;28;20057;-77
2023/10/04 12:34:59;;;;;;;8.55;2.88;;;17.80;84.60;;;;;;5057887;28;20074;-77
2023/10/04 12:37:32;;;;;;;9.90;2.80;;;17.80;84.60;;;;;;5075790;28;20021;-77
2023/10/04 12:39:58;;;;;;;8.63;2.45;;;17.70;83.40;;;;;;5075775;28;20039;-77
2023/10/04 12:42:25;;;;;;;8.55;2.80;;;17.70;84.70;;;;;;5075700;28;20025;-77
2023/10/04 12:44:50;;;;;;;9.73;2.75;;;17.70;84.10;;;;;;5075560;28;20094;-77
2023/10/04 12:47:16;;;;;;;11.52;2.95;;;17.60;83.40;;;;;;5075501;28;20480;-77
2023/10/04 12:49:43;;;;;;;8.30;3.00;;;17.70;84.20;;;;;;5057757;28;20028;-77
2023/10/04 12:52:10;;;;;;;11.13;3.22;;;17.70;85.80;;;;;;5074446;28;20017;-77
2023/10/04 12:54:36;;;;;;;11.85;3.70;;;17.70;86.50;;;;;;5075289;28;20020;-77
2023/10/04 12:57:02;;;;;;;8.98;3.28;;;17.70;85.50;;;;;;5057749;28;20029;-77
2023/10/04 12:59:27;;;;;;;10.60;3.33;;;17.70;84.20;;;;;;5075273;28;20025;-77
2023/10/04 13:01:54;;;;;;;8.00;3.08;;;17.70;85.20;;;;;;5075198;28;20021;-77
2023/10/04 13:04:20;;;;;;;7.38;2.42;;;17.70;84.80;;;;;;5075189;28;20040;-77
2023/10/04 13:06:45;;;;;;;8.68;2.67;;;17.60;85.00;;;;;;5057710;28;20033;-77
2023/10/04 13:09:19;;;;;;;8.18;3.05;;;17.60;84.70;;;;;;5075010;28;20053;-77
2023/10/04 13:11:46;;;;;;;8.73;3.00;;;17.70;85.40;;;;;;5057471;28;20021;-77
2023/10/04 13:14:12;;;;;;;8.25;3.05;;;17.70;85.80;;;;;;5074979;28;20025;-78
2023/10/04 13:16:37;;;;;;;8.80;3.13;;;17.70;85.40;;;;;;5074006;28;20032;-77